Terminal Aerodrome Forecast
Issued by NWS

Home | Current Version | Previous Version | Text Only | Print | Product List | Glossary On
Versions: 1 2 3 4 5 6 7 8 9 10 11 12 13
001
FTUS44 KCRP 081734
TAFALI
TAF
KALI 081734Z 0818/0918 01018G26KT 5SM -RA OVC018
     FM090000 01018KT P6SM OVC020
     FM090600 36013KT P6SM OVC040=

USA.gov is the U.S. government's official web portal to all federal, state and local government web resources and services.